createdAt,value
2023-03-17T00:00:26.798Z,12.35
2023-03-17T00:03:34.238Z,13.48
2023-03-17T00:06:25.707Z,13.10
2023-03-17T00:09:15.635Z,13.75
2023-03-17T00:12:00.824Z,17.90
2023-03-17T00:14:47.060Z,13.23
2023-03-17T00:17:32.552Z,14.43
2023-03-17T00:20:23.620Z,13.70
2023-03-17T00:23:15.394Z,12.98
2023-03-17T00:26:01.323Z,13.52
2023-03-17T00:28:46.958Z,18.77
2023-03-17T00:31:34.260Z,15.77
2023-03-17T00:34:20.031Z,14.13
2023-03-17T00:37:05.748Z,18.70
2023-03-17T00:39:51.631Z,16.83
2023-03-17T00:42:37.219Z,13.95
2023-03-17T00:45:23.601Z,14.55
2023-03-17T00:48:18.676Z,16.30
2023-03-17T00:51:04.345Z,12.63
2023-03-17T00:53:49.557Z,12.18
2023-03-17T00:56:34.930Z,20.48
2023-03-17T00:59:26.912Z,21.92
2023-03-17T01:02:13.479Z,28.25
2023-03-17T01:05:06.252Z,18.40
2023-03-17T01:07:57.923Z,17.87
2023-03-17T01:10:43.568Z,19.23
2023-03-17T01:13:29.581Z,18.75
2023-03-17T01:16:15.942Z,15.48
2023-03-17T01:19:01.583Z,16.42
2023-03-17T01:21:48.076Z,17.23
2023-03-17T01:24:33.327Z,12.23
2023-03-17T01:27:19.471Z,16.48
2023-03-17T01:30:06.779Z,16.08
2023-03-17T01:32:52.324Z,12.32
2023-03-17T01:35:39.080Z,12.93
2023-03-17T01:38:24.640Z,13.20
2023-03-17T01:41:10.524Z,11.15
2023-03-17T01:43:55.484Z,13.18
2023-03-17T01:46:40.785Z,15.20
2023-03-17T01:49:35.483Z,12.35
2023-03-17T01:52:21.992Z,13.05
2023-03-17T01:55:12.830Z,13.65
2023-03-17T01:57:58.724Z,14.65
2023-03-17T02:00:44.415Z,11.20
2023-03-17T02:03:30.167Z,12.48
2023-03-17T02:06:16.118Z,12.73
2023-03-17T02:09:01.780Z,47.40
2023-03-17T02:11:47.308Z,46.88
2023-03-17T02:14:32.709Z,39.97
2023-03-17T02:17:19.428Z,45.58
2023-03-17T02:20:17.246Z,52.70
2023-03-17T02:23:04.187Z,41.03
2023-03-17T02:25:51.307Z,37.83
2023-03-17T02:28:36.860Z,28.67
2023-03-17T02:31:24.934Z,34.28
2023-03-17T02:34:10.202Z,34.80
2023-03-17T02:36:55.770Z,34.80
2023-03-17T02:39:41.035Z,32.65
2023-03-17T02:42:26.445Z,36.55
2023-03-17T02:45:12.800Z,34.17
2023-03-17T02:47:58.638Z,46.03
2023-03-17T02:50:44.092Z,36.13
2023-03-17T02:53:29.434Z,26.20
2023-03-17T02:56:15.119Z,34.40
2023-03-17T02:59:00.216Z,22.42
2023-03-17T03:01:45.603Z,24.10
2023-03-17T03:04:31.545Z,17.80
2023-03-17T03:07:17.213Z,20.77
2023-03-17T03:10:02.517Z,18.45
2023-03-17T03:12:47.892Z,19.90
2023-03-17T03:15:33.252Z,23.02
2023-03-17T03:18:19.453Z,24.45
2023-03-17T03:21:05.150Z,17.65
2023-03-17T03:23:51.197Z,21.42
2023-03-17T03:26:37.166Z,12.27
2023-03-17T03:29:22.565Z,17.10
2023-03-17T03:32:08.222Z,18.45
2023-03-17T03:34:53.997Z,10.48
2023-03-17T03:37:39.412Z,11.85
2023-03-17T03:40:25.040Z,15.15
2023-03-17T03:43:21.849Z,13.45
2023-03-17T03:46:08.838Z,9.50
2023-03-17T03:48:54.976Z,13.45
2023-03-17T03:51:40.197Z,9.55
2023-03-17T03:54:25.549Z,12.77
2023-03-17T03:57:10.955Z,10.95
2023-03-17T03:59:56.308Z,15.38
2023-03-17T04:02:43.362Z,8.27
2023-03-17T04:05:28.850Z,12.20
2023-03-17T04:08:14.337Z,9.90
2023-03-17T04:10:59.718Z,15.98
2023-03-17T04:13:45.088Z,16.25
2023-03-17T04:16:30.307Z,10.88
2023-03-17T04:19:16.371Z,14.30
2023-03-17T04:22:01.763Z,12.30
2023-03-17T04:24:46.956Z,13.65
2023-03-17T04:27:32.325Z,13.43
2023-03-17T04:30:17.872Z,10.57
2023-03-17T04:33:03.197Z,16.80
2023-03-17T04:35:48.667Z,12.20
2023-03-17T04:38:34.319Z,12.30
2023-03-17T04:41:21.263Z,11.85
2023-03-17T04:44:07.177Z,9.40
2023-03-17T04:46:52.742Z,15.20
2023-03-17T04:49:38.363Z,11.43
2023-03-17T04:52:23.502Z,9.63
2023-03-17T04:55:09.505Z,12.07
2023-03-17T04:57:54.678Z,11.60
2023-03-17T05:00:40.230Z,15.18
2023-03-17T05:03:27.844Z,12.43
2023-03-17T05:06:13.617Z,15.95
2023-03-17T05:08:58.977Z,22.20
2023-03-17T05:11:44.364Z,24.98
2023-03-17T05:14:29.715Z,35.00
2023-03-17T05:17:15.340Z,27.85
2023-03-17T05:20:00.589Z,20.35
2023-03-17T05:22:46.611Z,14.73
2023-03-17T05:25:31.935Z,15.40
2023-03-17T05:28:18.283Z,18.15
2023-03-17T05:31:03.706Z,12.32
2023-03-17T05:33:49.653Z,16.23
2023-03-17T05:36:36.821Z,23.02
2023-03-17T05:39:22.226Z,15.45
2023-03-17T05:42:08.578Z,17.60
2023-03-17T05:44:54.401Z,14.77
2023-03-17T05:47:39.607Z,17.60
2023-03-17T05:50:26.078Z,17.02
2023-03-17T05:53:11.721Z,14.35
2023-03-17T05:55:56.984Z,23.20
2023-03-17T05:58:42.586Z,17.27
2023-03-17T06:01:28.170Z,28.33
2023-03-17T06:04:13.462Z,22.92
2023-03-17T06:06:58.952Z,25.45
2023-03-17T06:09:44.201Z,24.12
2023-03-17T06:12:29.769Z,24.73
2023-03-17T06:15:17.051Z,32.72
2023-03-17T06:18:05.225Z,25.60
2023-03-17T06:20:51.190Z,35.85
2023-03-17T06:23:37.337Z,17.70
2023-03-17T06:26:23.001Z,23.45
2023-03-17T06:29:14.205Z,12.18
2023-03-17T06:32:09.268Z,12.05
2023-03-17T06:35:03.025Z,11.48
2023-03-17T06:37:48.385Z,7.05
2023-03-17T06:40:34.248Z,6.30
2023-03-17T06:43:19.737Z,11.50
2023-03-17T06:46:05.963Z,7.37
2023-03-17T06:48:51.386Z,7.68
2023-03-17T06:51:37.505Z,7.53
2023-03-17T06:54:25.502Z,11.20
2023-03-17T06:57:10.935Z,9.50
2023-03-17T06:59:56.084Z,10.77
2023-03-17T07:02:43.499Z,5.20
2023-03-17T07:05:29.284Z,6.85
2023-03-17T07:08:15.413Z,6.03
2023-03-17T07:11:08.111Z,8.35
2023-03-17T07:13:53.927Z,6.25
2023-03-17T07:16:40.463Z,6.65
2023-03-17T07:19:27.290Z,10.80
2023-03-17T07:22:12.919Z,7.25
2023-03-17T07:24:59.270Z,5.68
2023-03-17T07:27:44.841Z,7.25
2023-03-17T07:30:31.274Z,6.05
2023-03-17T07:33:21.919Z,8.25
2023-03-17T07:36:09.163Z,6.50
2023-03-17T07:38:55.530Z,7.25
2023-03-17T07:41:41.445Z,13.07
2023-03-17T07:44:27.637Z,7.20
2023-03-17T07:47:13.806Z,5.37
2023-03-17T07:49:59.310Z,5.20
2023-03-17T07:52:45.972Z,9.07
2023-03-17T07:55:32.780Z,9.30
2023-03-17T07:58:18.740Z,4.35
2023-03-17T08:01:05.079Z,6.95
2023-03-17T08:03:50.319Z,6.85
2023-03-17T08:06:44.860Z,13.23
2023-03-17T08:09:32.807Z,5.47
2023-03-17T08:12:18.333Z,3.95
2023-03-17T08:15:03.852Z,4.70
2023-03-17T08:17:49.208Z,13.50
2023-03-17T08:20:35.306Z,4.95
2023-03-17T08:23:21.614Z,4.55
2023-03-17T08:26:07.028Z,5.72
2023-03-17T08:28:52.457Z,6.45
2023-03-17T08:31:38.123Z,8.73
2023-03-17T08:34:24.381Z,11.70
2023-03-17T08:37:12.037Z,7.50
2023-03-17T08:39:57.798Z,7.93
2023-03-17T08:42:46.864Z,4.65
2023-03-17T08:45:32.957Z,5.55
2023-03-17T08:48:18.680Z,6.28
2023-03-17T08:51:06.911Z,4.90
2023-03-17T08:53:52.855Z,3.95
2023-03-17T08:56:40.595Z,8.65
2023-03-17T08:59:28.102Z,2.67
2023-03-17T09:02:15.936Z,3.95
2023-03-17T09:05:02.735Z,3.37
2023-03-17T09:07:49.614Z,6.97
2023-03-17T09:10:36.595Z,4.57
2023-03-17T09:13:22.747Z,9.10
2023-03-17T09:16:10.980Z,3.85
2023-03-17T09:18:56.438Z,7.43
2023-03-17T09:21:41.682Z,6.22
2023-03-17T09:24:29.485Z,7.57
2023-03-17T09:27:14.915Z,5.75
2023-03-17T09:30:03.086Z,4.35
2023-03-17T09:32:49.972Z,5.37
2023-03-17T09:35:35.682Z,5.32
2023-03-17T09:38:21.725Z,6.35
2023-03-17T09:41:18.992Z,6.05
2023-03-17T09:44:10.382Z,5.28
2023-03-17T09:47:18.235Z,3.78
2023-03-17T09:50:09.573Z,4.30
2023-03-17T09:52:57.023Z,4.50
2023-03-17T09:55:43.231Z,17.27
2023-03-17T09:58:31.950Z,4.85
2023-03-17T10:01:18.679Z,3.70
2023-03-17T10:04:08.097Z,8.27
2023-03-17T10:07:07.193Z,4.32
2023-03-17T10:10:05.261Z,4.55
2023-03-17T10:13:02.136Z,5.30
2023-03-17T10:15:52.566Z,7.15
2023-03-17T10:18:49.126Z,4.37
2023-03-17T10:21:37.866Z,5.47
2023-03-17T10:24:25.040Z,5.07
2023-03-17T10:27:11.739Z,15.20
2023-03-17T10:29:57.869Z,4.22
2023-03-17T10:32:46.014Z,3.92
2023-03-17T10:35:36.518Z,4.10
2023-03-17T10:38:24.140Z,8.23
2023-03-17T10:41:14.759Z,5.20
2023-03-17T10:44:00.712Z,4.97
2023-03-17T10:46:57.137Z,3.97
2023-03-17T10:49:44.591Z,3.08
2023-03-17T10:52:35.995Z,3.50
2023-03-17T10:55:24.157Z,4.70
2023-03-17T10:58:18.431Z,5.10
2023-03-17T11:01:08.663Z,5.18
2023-03-17T11:03:54.578Z,5.78
2023-03-17T11:06:51.464Z,4.57
2023-03-17T11:09:38.167Z,20.88
2023-03-17T11:13:01.432Z,5.53
2023-03-17T11:15:54.552Z,5.87
2023-03-17T11:18:40.373Z,4.93
2023-03-17T11:21:34.793Z,10.57
2023-03-17T11:24:32.028Z,4.72
2023-03-17T11:27:26.728Z,9.27
2023-03-17T11:30:33.070Z,8.95
2023-03-17T11:33:44.458Z,10.52
2023-03-17T11:36:48.561Z,3.90
2023-03-17T11:40:11.265Z,4.18
2023-03-17T11:43:14.825Z,4.80
2023-03-17T11:46:24.448Z,5.57
2023-03-17T11:49:34.529Z,4.05
2023-03-17T11:52:28.702Z,9.80
2023-03-17T11:55:32.684Z,6.28
2023-03-17T11:59:01.830Z,9.45
2023-03-17T12:02:11.251Z,6.05
2023-03-17T12:05:06.456Z,11.00
2023-03-17T12:07:54.918Z,5.68
2023-03-17T12:10:46.104Z,6.18
2023-03-17T12:13:34.381Z,6.45
2023-03-17T12:16:38.395Z,12.65
2023-03-17T12:19:28.324Z,9.68
2023-03-17T12:22:28.536Z,4.57
2023-03-17T12:25:36.206Z,4.75
2023-03-17T12:28:27.285Z,6.25
2023-03-17T12:31:40.189Z,10.57
2023-03-17T12:34:46.244Z,4.70
2023-03-17T12:37:32.114Z,4.95
2023-03-17T12:40:21.227Z,5.22
2023-03-17T12:43:10.301Z,4.28
2023-03-17T12:46:38.030Z,4.72
2023-03-17T12:49:28.500Z,3.90
2023-03-17T12:52:24.809Z,15.73
2023-03-17T12:55:14.807Z,4.60
2023-03-17T12:58:04.786Z,12.88
2023-03-17T13:00:56.218Z,10.55
2023-03-17T13:04:02.110Z,3.50
2023-03-17T13:07:06.394Z,6.03
